sensor_id;sensor_type;location;lat;lon;timestamp;pressure;altitude;pressure_sealevel;temperature;humidity
12868;BME280;33517;49.866;8.320;2023-02-26T00:00:10;100258.97;;;1.21;63.31
12868;BME280;33517;49.866;8.320;2023-02-26T00:03:04;100263.09;;;1.24;62.87
12868;BME280;33517;49.866;8.320;2023-02-26T00:05:58;100270.38;;;1.19;63.36
12868;BME280;33517;49.866;8.320;2023-02-26T00:08:51;100270.91;;;1.11;64.29
12868;BME280;33517;49.866;8.320;2023-02-26T00:11:44;100263.06;;;1.00;64.45
12868;BME280;33517;49.866;8.320;2023-02-26T00:14:36;100265.81;;;0.86;64.38
12868;BME280;33517;49.866;8.320;2023-02-26T00:17:38;100263.34;;;0.72;65.53
12868;BME280;33517;49.866;8.320;2023-02-26T00:20:34;100266.16;;;0.69;65.03
12868;BME280;33517;49.866;8.320;2023-02-26T00:23:27;100268.84;;;0.67;66.13
12868;BME280;33517;49.866;8.320;2023-02-26T00:26:19;100269.03;;;0.77;65.08
12868;BME280;33517;49.866;8.320;2023-02-26T00:29:12;100263.31;;;0.84;65.05
12868;BME280;33517;49.866;8.320;2023-02-26T00:32:04;100265.81;;;0.86;65.26
12868;BME280;33517;49.866;8.320;2023-02-26T00:34:58;100269.75;;;0.91;65.09
12868;BME280;33517;49.866;8.320;2023-02-26T00:37:59;100272.81;;;0.97;65.01
12868;BME280;33517;49.866;8.320;2023-02-26T00:40:52;100270.22;;;0.97;65.02
12868;BME280;33517;49.866;8.320;2023-02-26T00:43:46;100275.31;;;0.98;65.07
12868;BME280;33517;49.866;8.320;2023-02-26T00:46:43;100271.56;;;1.02;64.89
12868;BME280;33517;49.866;8.320;2023-02-26T00:49:48;100281.94;;;1.02;65.12
12868;BME280;33517;49.866;8.320;2023-02-26T00:52:51;100279.63;;;1.10;64.79
12868;BME280;33517;49.866;8.320;2023-02-26T00:55:45;100279.19;;;1.16;64.98
12868;BME280;33517;49.866;8.320;2023-02-26T00:58:36;100288.41;;;1.20;64.97
12868;BME280;33517;49.866;8.320;2023-02-26T01:01:28;100280.22;;;1.26;64.98
12868;BME280;33517;49.866;8.320;2023-02-26T01:04:22;100286.00;;;1.30;65.07
12868;BME280;33517;49.866;8.320;2023-02-26T01:07:17;100287.19;;;1.37;64.85
12868;BME280;33517;49.866;8.320;2023-02-26T01:10:13;100293.94;;;1.39;65.35
12868;BME280;33517;49.866;8.320;2023-02-26T01:13:05;100286.75;;;1.43;65.36
12868;BME280;33517;49.866;8.320;2023-02-26T01:16:02;100283.03;;;1.47;64.76
12868;BME280;33517;49.866;8.320;2023-02-26T01:19:01;100282.66;;;1.51;65.23
12868;BME280;33517;49.866;8.320;2023-02-26T01:22:00;100285.97;;;1.53;64.98
12868;BME280;33517;49.866;8.320;2023-02-26T01:24:58;100287.41;;;1.57;65.37
12868;BME280;33517;49.866;8.320;2023-02-26T01:27:54;100285.66;;;1.58;65.23
12868;BME280;33517;49.866;8.320;2023-02-26T01:30:47;100287.41;;;1.57;64.87
12868;BME280;33517;49.866;8.320;2023-02-26T01:33:43;100284.00;;;1.57;64.98
12868;BME280;33517;49.866;8.320;2023-02-26T01:36:43;100289.88;;;1.59;65.66
12868;BME280;33517;49.866;8.320;2023-02-26T01:39:40;100292.38;;;1.60;65.14
12868;BME280;33517;49.866;8.320;2023-02-26T01:42:35;100288.72;;;1.63;65.20
12868;BME280;33517;49.866;8.320;2023-02-26T01:45:33;100292.63;;;1.68;65.68
12868;BME280;33517;49.866;8.320;2023-02-26T01:48:35;100285.38;;;1.73;65.37
12868;BME280;33517;49.866;8.320;2023-02-26T01:51:45;100291.16;;;1.77;65.33
12868;BME280;33517;49.866;8.320;2023-02-26T01:54:37;100290.91;;;1.80;65.23
12868;BME280;33517;49.866;8.320;2023-02-26T01:57:29;100300.25;;;1.82;64.93
12868;BME280;33517;49.866;8.320;2023-02-26T02:00:21;100302.63;;;1.85;64.99
12868;BME280;33517;49.866;8.320;2023-02-26T02:03:14;100298.97;;;1.88;65.22
12868;BME280;33517;49.866;8.320;2023-02-26T02:06:08;100301.44;;;1.89;65.02
12868;BME280;33517;49.866;8.320;2023-02-26T02:09:03;100293.06;;;1.86;64.95
12868;BME280;33517;49.866;8.320;2023-02-26T02:12:07;100300.97;;;1.84;65.20
12868;BME280;33517;49.866;8.320;2023-02-26T02:15:07;100297.34;;;1.87;64.95
12868;BME280;33517;49.866;8.320;2023-02-26T02:18:08;100300.84;;;1.86;65.30
12868;BME280;33517;49.866;8.320;2023-02-26T02:21:20;100300.03;;;1.85;65.05
12868;BME280;33517;49.866;8.320;2023-02-26T02:24:24;100306.41;;;1.81;65.41
12868;BME280;33517;49.866;8.320;2023-02-26T02:27:23;100315.53;;;1.74;64.70
12868;BME280;33517;49.866;8.320;2023-02-26T02:30:27;100319.75;;;1.64;64.86
12868;BME280;33517;49.866;8.320;2023-02-26T02:33:29;100320.94;;;1.48;65.43
12868;BME280;33517;49.866;8.320;2023-02-26T02:36:32;100320.41;;;1.32;65.95
12868;BME280;33517;49.866;8.320;2023-02-26T02:39:28;100319.63;;;1.19;66.12
12868;BME280;33517;49.866;8.320;2023-02-26T02:42:24;100328.75;;;1.12;66.02
12868;BME280;33517;49.866;8.320;2023-02-26T02:45:22;100340.84;;;1.11;65.92
12868;BME280;33517;49.866;8.320;2023-02-26T02:48:20;100333.09;;;1.11;66.60
12868;BME280;33517;49.866;8.320;2023-02-26T02:51:20;100346.56;;;1.16;66.39
12868;BME280;33517;49.866;8.320;2023-02-26T02:54:16;100340.72;;;1.25;66.39
12868;BME280;33517;49.866;8.320;2023-02-26T02:57:14;100343.38;;;1.36;66.79
12868;BME280;33517;49.866;8.320;2023-02-26T03:00:10;100343.47;;;1.47;66.50
12868;BME280;33517;49.866;8.320;2023-02-26T03:03:09;100348.72;;;1.58;66.77
12868;BME280;33517;49.866;8.320;2023-02-26T03:06:04;100351.38;;;1.69;66.68
12868;BME280;33517;49.866;8.320;2023-02-26T03:08:59;100355.56;;;1.83;66.33
12868;BME280;33517;49.866;8.320;2023-02-26T03:11:53;100358.03;;;1.84;67.08
12868;BME280;33517;49.866;8.320;2023-02-26T03:14:45;100362.38;;;1.84;67.01
12868;BME280;33517;49.866;8.320;2023-02-26T03:17:45;100357.91;;;1.86;67.31
12868;BME280;33517;49.866;8.320;2023-02-26T03:20:45;100360.44;;;1.88;67.55
12868;BME280;33517;49.866;8.320;2023-02-26T03:23:45;100363.81;;;1.88;67.86
12868;BME280;33517;49.866;8.320;2023-02-26T03:26:45;100368.41;;;1.84;68.04
12868;BME280;33517;49.866;8.320;2023-02-26T03:29:40;100368.66;;;1.81;68.40
12868;BME280;33517;49.866;8.320;2023-02-26T03:32:41;100371.56;;;1.77;68.69
12868;BME280;33517;49.866;8.320;2023-02-26T03:35:41;100371.88;;;1.72;68.77
12868;BME280;33517;49.866;8.320;2023-02-26T03:38:39;100375.84;;;1.65;69.33
12868;BME280;33517;49.866;8.320;2023-02-26T03:41:36;100374.75;;;1.57;68.99
12868;BME280;33517;49.866;8.320;2023-02-26T03:44:33;100378.09;;;1.46;68.99
12868;BME280;33517;49.866;8.320;2023-02-26T03:47:28;100385.09;;;1.33;69.56
12868;BME280;33517;49.866;8.320;2023-02-26T03:50:26;100399.22;;;1.17;69.61
12868;BME280;33517;49.866;8.320;2023-02-26T03:53:22;100392.81;;;0.97;70.26
12868;BME280;33517;49.866;8.320;2023-02-26T03:56:18;100390.75;;;0.77;69.96
12868;BME280;33517;49.866;8.320;2023-02-26T03:59:13;100400.88;;;0.55;70.38
12868;BME280;33517;49.866;8.320;2023-02-26T04:02:11;100408.00;;;0.39;71.32
12868;BME280;33517;49.866;8.320;2023-02-26T04:05:07;100409.84;;;0.24;71.94
12868;BME280;33517;49.866;8.320;2023-02-26T04:08:02;100414.88;;;0.13;72.10
12868;BME280;33517;49.866;8.320;2023-02-26T04:10:56;100410.38;;;0.03;72.59
12868;BME280;33517;49.866;8.320;2023-02-26T04:13:48;100414.31;;;-0.05;72.83
12868;BME280;33517;49.866;8.320;2023-02-26T04:16:43;100422.44;;;-0.11;73.20
12868;BME280;33517;49.866;8.320;2023-02-26T04:19:36;100423.56;;;-0.15;73.21
12868;BME280;33517;49.866;8.320;2023-02-26T04:22:28;100417.97;;;-0.21;73.92
12868;BME280;33517;49.866;8.320;2023-02-26T04:25:20;100434.59;;;-0.25;73.96
12868;BME280;33517;49.866;8.320;2023-02-26T04:28:12;100427.13;;;-0.30;73.72
12868;BME280;33517;49.866;8.320;2023-02-26T04:31:04;100431.94;;;-0.38;74.33
12868;BME280;33517;49.866;8.320;2023-02-26T04:33:56;100435.84;;;-0.45;74.67
12868;BME280;33517;49.866;8.320;2023-02-26T04:36:49;100439.63;;;-0.50;75.21
12868;BME280;33517;49.866;8.320;2023-02-26T04:39:41;100443.31;;;-0.54;74.79
12868;BME280;33517;49.866;8.320;2023-02-26T04:42:33;100443.81;;;-0.62;76.78
12868;BME280;33517;49.866;8.320;2023-02-26T04:45:25;100448.22;;;-0.64;77.00
12868;BME280;33517;49.866;8.320;2023-02-26T04:48:17;100456.16;;;-0.67;76.62
12868;BME280;33517;49.866;8.320;2023-02-26T04:51:09;100445.06;;;-0.69;77.19
12868;BME280;33517;49.866;8.320;2023-02-26T04:54:02;100449.44;;;-0.69;77.96
12868;BME280;33517;49.866;8.320;2023-02-26T04:56:54;100451.19;;;-0.70;77.89
12868;BME280;33517;49.866;8.320;2023-02-26T04:59:46;100451.09;;;-0.68;78.12
12868;BME280;33517;49.866;8.320;2023-02-26T05:02:38;100462.91;;;-0.64;78.41
12868;BME280;33517;49.866;8.320;2023-02-26T05:05:30;100459.66;;;-0.68;78.11
12868;BME280;33517;49.866;8.320;2023-02-26T05:08:22;100461.41;;;-0.68;77.69
12868;BME280;33517;49.866;8.320;2023-02-26T05:11:15;100460.03;;;-0.74;78.10
12868;BME280;33517;49.866;8.320;2023-02-26T05:14:07;100467.03;;;-0.76;78.29
12868;BME280;33517;49.866;8.320;2023-02-26T05:16:59;100471.47;;;-0.78;78.39
12868;BME280;33517;49.866;8.320;2023-02-26T05:19:51;100470.09;;;-0.83;78.39
12868;BME280;33517;49.866;8.320;2023-02-26T05:22:42;100483.28;;;-0.88;77.89
12868;BME280;33517;49.866;8.320;2023-02-26T05:25:34;100476.56;;;-0.90;78.37
12868;BME280;33517;49.866;8.320;2023-02-26T05:28:28;100483.47;;;-0.91;77.95
12868;BME280;33517;49.866;8.320;2023-02-26T05:31:20;100487.03;;;-0.94;78.87
12868;BME280;33517;49.866;8.320;2023-02-26T05:34:12;100500.06;;;-0.95;78.26
12868;BME280;33517;49.866;8.320;2023-02-26T05:37:03;100496.84;;;-0.99;78.12
12868;BME280;33517;49.866;8.320;2023-02-26T05:39:55;100496.28;;;-1.04;78.61
12868;BME280;33517;49.866;8.320;2023-02-26T05:42:47;100495.53;;;-1.06;78.50
12868;BME280;33517;49.866;8.320;2023-02-26T05:45:40;100497.28;;;-1.06;78.78
12868;BME280;33517;49.866;8.320;2023-02-26T05:48:32;100502.44;;;-1.06;79.96
12868;BME280;33517;49.866;8.320;2023-02-26T05:51:24;100500.06;;;-1.09;79.84
12868;BME280;33517;49.866;8.320;2023-02-26T05:54:18;100500.75;;;-1.07;79.84
12868;BME280;33517;49.866;8.320;2023-02-26T05:57:10;100505.13;;;-1.08;79.26
12868;BME280;33517;49.866;8.320;2023-02-26T06:00:03;100513.88;;;-1.10;79.47
12868;BME280;33517;49.866;8.320;2023-02-26T06:02:57;100512.28;;;-1.13;79.88
12868;BME280;33517;49.866;8.320;2023-02-26T06:05:48;100516.81;;;-1.16;79.63
12868;BME280;33517;49.866;8.320;2023-02-26T06:08:41;100518.81;;;-1.21;79.10
12868;BME280;33517;49.866;8.320;2023-02-26T06:11:32;100522.50;;;-1.25;79.19
12868;BME280;33517;49.866;8.320;2023-02-26T06:14:25;100527.91;;;-1.30;78.79
12868;BME280;33517;49.866;8.320;2023-02-26T06:17:16;100529.84;;;-1.33;79.41
12868;BME280;33517;49.866;8.320;2023-02-26T06:20:11;100536.69;;;-1.32;79.17
12868;BME280;33517;49.866;8.320;2023-02-26T06:23:03;100537.59;;;-1.33;78.86
12868;BME280;33517;49.866;8.320;2023-02-26T06:25:55;100542.59;;;-1.30;79.05
12868;BME280;33517;49.866;8.320;2023-02-26T06:28:49;100542.31;;;-1.26;79.17
12868;BME280;33517;49.866;8.320;2023-02-26T06:31:41;100549.81;;;-1.21;78.76
12868;BME280;33517;49.866;8.320;2023-02-26T06:34:33;100553.22;;;-1.21;79.01
12868;BME280;33517;49.866;8.320;2023-02-26T06:37:26;100558.00;;;-1.15;79.25
12868;BME280;33517;49.866;8.320;2023-02-26T06:40:18;100563.00;;;-1.12;78.45
12868;BME280;33517;49.866;8.320;2023-02-26T06:43:10;100564.50;;;-1.08;78.45
12868;BME280;33517;49.866;8.320;2023-02-26T06:46:02;100571.16;;;-1.04;78.32
12868;BME280;33517;49.866;8.320;2023-02-26T06:48:54;100581.94;;;-0.97;78.22
12868;BME280;33517;49.866;8.320;2023-02-26T06:51:45;100588.34;;;-0.88;78.61
12868;BME280;33517;49.866;8.320;2023-02-26T06:54:38;100598.88;;;-0.77;77.82
12868;BME280;33517;49.866;8.320;2023-02-26T06:57:30;100608.06;;;-0.58;78.10
12868;BME280;33517;49.866;8.320;2023-02-26T07:00:23;100604.63;;;0.12;77.33
12868;BME280;33517;49.866;8.320;2023-02-26T07:03:16;100614.09;;;1.07;74.73
12868;BME280;33517;49.866;8.320;2023-02-26T07:06:10;100612.03;;;0.85;74.42
12868;BME280;33517;49.866;8.320;2023-02-26T07:09:02;100623.66;;;0.92;74.40
12868;BME280;33517;49.866;8.320;2023-02-26T07:11:55;100624.78;;;1.40;72.91
12868;BME280;33517;49.866;8.320;2023-02-26T07:14:47;100629.00;;;1.16;72.55
12868;BME280;33517;49.866;8.320;2023-02-26T07:17:39;100634.16;;;1.04;72.80
12868;BME280;33517;49.866;8.320;2023-02-26T07:20:31;100643.63;;;1.17;72.50
12868;BME280;33517;49.866;8.320;2023-02-26T07:23:23;100637.13;;;2.61;70.76
12868;BME280;33517;49.866;8.320;2023-02-26T07:26:15;100632.72;;;6.01;63.80
12868;BME280;33517;49.866;8.320;2023-02-26T07:29:08;100629.81;;;7.03;58.29
12868;BME280;33517;49.866;8.320;2023-02-26T07:32:01;100645.25;;;7.54;57.82
12868;BME280;33517;49.866;8.320;2023-02-26T07:34:53;100641.66;;;8.47;54.70
12868;BME280;33517;49.866;8.320;2023-02-26T07:37:44;100653.38;;;7.22;54.36
12868;BME280;33517;49.866;8.320;2023-02-26T07:40:36;100671.38;;;5.45;57.79
12868;BME280;33517;49.866;8.320;2023-02-26T07:43:28;100684.94;;;4.32;59.79
12868;BME280;33517;49.866;8.320;2023-02-26T07:46:21;100687.63;;;3.75;62.11
12868;BME280;33517;49.866;8.320;2023-02-26T07:49:13;100685.06;;;3.28;62.78
12868;BME280;33517;49.866;8.320;2023-02-26T07:52:06;100692.06;;;3.04;63.52
12868;BME280;33517;49.866;8.320;2023-02-26T07:54:58;100690.69;;;2.87;64.14
12868;BME280;33517;49.866;8.320;2023-02-26T07:57:49;100692.88;;;2.80;64.21
12868;BME280;33517;49.866;8.320;2023-02-26T08:00:41;100691.84;;;2.70;64.73
12868;BME280;33517;49.866;8.320;2023-02-26T08:03:34;100691.13;;;2.81;65.50
12868;BME280;33517;49.866;8.320;2023-02-26T08:06:26;100697.75;;;2.85;65.32
12868;BME280;33517;49.866;8.320;2023-02-26T08:09:18;100697.13;;;2.81;65.66
12868;BME280;33517;49.866;8.320;2023-02-26T08:12:10;100704.19;;;2.79;65.38
12868;BME280;33517;49.866;8.320;2023-02-26T08:15:02;100704.41;;;2.76;64.73
12868;BME280;33517;49.866;8.320;2023-02-26T08:17:54;100716.13;;;2.95;64.82
12868;BME280;33517;49.866;8.320;2023-02-26T08:20:49;100713.47;;;3.07;64.78
12868;BME280;33517;49.866;8.320;2023-02-26T08:23:41;100725.78;;;3.16;64.10
12868;BME280;33517;49.866;8.320;2023-02-26T08:26:34;100729.78;;;3.67;62.73
12868;BME280;33517;49.866;8.320;2023-02-26T08:29:26;100723.31;;;4.19;61.14
12868;BME280;33517;49.866;8.320;2023-02-26T08:32:18;100720.03;;;5.46;59.23
12868;BME280;33517;49.866;8.320;2023-02-26T08:35:12;100711.19;;;6.20;57.02
12868;BME280;33517;49.866;8.320;2023-02-26T08:38:05;100722.00;;;5.22;57.52
12868;BME280;33517;49.866;8.320;2023-02-26T08:40:57;100730.63;;;4.69;57.74
12868;BME280;33517;49.866;8.320;2023-02-26T08:43:49;100732.78;;;4.64;57.86
12868;BME280;33517;49.866;8.320;2023-02-26T08:46:41;100728.56;;;5.06;56.79
12868;BME280;33517;49.866;8.320;2023-02-26T08:49:33;100739.94;;;5.79;55.39
12868;BME280;33517;49.866;8.320;2023-02-26T08:52:25;100732.59;;;5.73;54.82
12868;BME280;33517;49.866;8.320;2023-02-26T08:55:18;100752.44;;;6.17;53.25
12868;BME280;33517;49.866;8.320;2023-02-26T08:58:10;100750.72;;;5.22;54.35
12868;BME280;33517;49.866;8.320;2023-02-26T09:01:02;100755.78;;;4.59;54.68
12868;BME280;33517;49.866;8.320;2023-02-26T09:03:54;100758.34;;;4.37;54.97
12868;BME280;33517;49.866;8.320;2023-02-26T09:06:45;100767.91;;;4.14;54.68
12868;BME280;33517;49.866;8.320;2023-02-26T09:09:37;100780.31;;;4.00;55.49
12868;BME280;33517;49.866;8.320;2023-02-26T09:12:30;100770.81;;;3.99;55.99
12868;BME280;33517;49.866;8.320;2023-02-26T09:15:22;100778.56;;;4.11;55.99
12868;BME280;33517;49.866;8.320;2023-02-26T09:18:14;100778.00;;;4.19;55.97
12868;BME280;33517;49.866;8.320;2023-02-26T09:21:06;100775.84;;;4.13;56.21
12868;BME280;33517;49.866;8.320;2023-02-26T09:23:58;100787.25;;;3.88;56.07
12868;BME280;33517;49.866;8.320;2023-02-26T09:26:50;100792.47;;;3.88;56.41
12868;BME280;33517;49.866;8.320;2023-02-26T09:29:43;100784.88;;;3.96;56.36
12868;BME280;33517;49.866;8.320;2023-02-26T09:32:35;100786.91;;;4.72;55.53
12868;BME280;33517;49.866;8.320;2023-02-26T09:35:27;100783.81;;;5.53;53.89
12868;BME280;33517;49.866;8.320;2023-02-26T09:38:19;100790.00;;;5.52;53.01
12868;BME280;33517;49.866;8.320;2023-02-26T09:41:17;100791.00;;;6.04;52.09
12868;BME280;33517;49.866;8.320;2023-02-26T09:44:16;100793.44;;;5.85;51.65
12868;BME280;33517;49.866;8.320;2023-02-26T09:47:13;100800.03;;;6.20;51.70
12868;BME280;33517;49.866;8.320;2023-02-26T09:50:13;100790.09;;;7.73;48.64
12868;BME280;33517;49.866;8.320;2023-02-26T09:53:13;100813.81;;;6.43;49.15
12868;BME280;33517;49.866;8.320;2023-02-26T09:56:13;100812.50;;;6.58;49.15
12868;BME280;33517;49.866;8.320;2023-02-26T09:59:08;100816.34;;;6.13;50.46
12868;BME280;33517;49.866;8.320;2023-02-26T10:02:04;100821.88;;;6.61;49.67
12868;BME280;33517;49.866;8.320;2023-02-26T10:05:08;100818.91;;;6.44;49.62
12868;BME280;33517;49.866;8.320;2023-02-26T10:08:07;100822.84;;;6.60;50.71
12868;BME280;33517;49.866;8.320;2023-02-26T10:11:10;100816.06;;;7.17;48.86
12868;BME280;33517;49.866;8.320;2023-02-26T10:14:06;100827.72;;;6.74;49.19
12868;BME280;33517;49.866;8.320;2023-02-26T10:17:07;100829.03;;;6.38;50.17
12868;BME280;33517;49.866;8.320;2023-02-26T10:20:11;100833.91;;;6.22;49.79
12868;BME280;33517;49.866;8.320;2023-02-26T10:23:15;100836.47;;;6.01;50.43
12868;BME280;33517;49.866;8.320;2023-02-26T10:26:12;100846.53;;;6.06;50.55
12868;BME280;33517;49.866;8.320;2023-02-26T10:29:13;100842.47;;;6.13;50.70
12868;BME280;33517;49.866;8.320;2023-02-26T10:32:17;100842.72;;;6.10;51.15
12868;BME280;33517;49.866;8.320;2023-02-26T10:35:15;100847.06;;;6.20;50.57
12868;BME280;33517;49.866;8.320;2023-02-26T10:38:11;100842.44;;;7.05;49.97
12868;BME280;33517;49.866;8.320;2023-02-26T10:41:08;100837.28;;;7.24;48.06
12868;BME280;33517;49.866;8.320;2023-02-26T10:44:05;100852.16;;;6.63;48.84
12868;BME280;33517;49.866;8.320;2023-02-26T10:47:04;100854.41;;;6.26;49.14
12868;BME280;33517;49.866;8.320;2023-02-26T10:50:05;100860.25;;;6.39;49.29
12868;BME280;33517;49.866;8.320;2023-02-26T10:52:58;100862.22;;;6.06;49.29
12868;BME280;33517;49.866;8.320;2023-02-26T10:55:56;100853.88;;;6.53;49.66
12868;BME280;33517;49.866;8.320;2023-02-26T10:58:51;100859.25;;;7.42;48.74
12868;BME280;33517;49.866;8.320;2023-02-26T11:01:44;100853.47;;;8.82;45.86
12868;BME280;33517;49.866;8.320;2023-02-26T11:04:37;100852.97;;;11.07;43.24
12868;BME280;33517;49.866;8.320;2023-02-26T11:07:31;100854.50;;;9.70;42.93
12868;BME280;33517;49.866;8.320;2023-02-26T11:10:30;100857.56;;;9.21;44.58
12868;BME280;33517;49.866;8.320;2023-02-26T11:13:28;100854.28;;;11.37;43.17
12868;BME280;33517;49.866;8.320;2023-02-26T11:16:21;100856.84;;;10.61;41.85
12868;BME280;33517;49.866;8.320;2023-02-26T11:19:14;100859.19;;;9.94;42.83
12868;BME280;33517;49.866;8.320;2023-02-26T11:22:07;100860.56;;;9.36;43.30
12868;BME280;33517;49.866;8.320;2023-02-26T11:25:03;100865.00;;;10.15;43.20
12868;BME280;33517;49.866;8.320;2023-02-26T11:28:02;100862.56;;;10.82;42.24
12868;BME280;33517;49.866;8.320;2023-02-26T11:30:54;100862.06;;;10.00;42.00
12868;BME280;33517;49.866;8.320;2023-02-26T11:33:48;100871.75;;;9.01;43.14
12868;BME280;33517;49.866;8.320;2023-02-26T11:36:43;100872.31;;;8.39;44.10
12868;BME280;33517;49.866;8.320;2023-02-26T11:39:37;100870.06;;;7.87;44.24
12868;BME280;33517;49.866;8.320;2023-02-26T11:42:34;100874.28;;;7.50;45.25
12868;BME280;33517;49.866;8.320;2023-02-26T11:45:30;100868.16;;;8.46;43.64
12868;BME280;33517;49.866;8.320;2023-02-26T11:48:24;100881.94;;;8.19;44.11
12868;BME280;33517;49.866;8.320;2023-02-26T11:51:19;100878.53;;;7.51;44.25
12868;BME280;33517;49.866;8.320;2023-02-26T11:54:20;100882.09;;;7.00;45.50
12868;BME280;33517;49.866;8.320;2023-02-26T11:57:16;100879.72;;;6.97;45.31
12868;BME280;33517;49.866;8.320;2023-02-26T12:00:17;100874.25;;;7.40;45.47
12868;BME280;33517;49.866;8.320;2023-02-26T12:03:16;100878.75;;;7.19;45.80
12868;BME280;33517;49.866;8.320;2023-02-26T12:06:14;100873.28;;;8.19;43.98
12868;BME280;33517;49.866;8.320;2023-02-26T12:09:08;100867.75;;;8.41;44.78
12868;BME280;33517;49.866;8.320;2023-02-26T12:12:23;100862.66;;;8.20;43.51
12868;BME280;33517;49.866;8.320;2023-02-26T12:15:25;100867.34;;;8.55;43.92
12868;BME280;33517;49.866;8.320;2023-02-26T12:18:34;100848.28;;;9.54;42.27
12868;BME280;33517;49.866;8.320;2023-02-26T12:21:55;100860.72;;;9.24;42.46
12868;BME280;33517;49.866;8.320;2023-02-26T12:25:17;100857.41;;;9.22;42.30
12868;BME280;33517;49.866;8.320;2023-02-26T12:32:09;100840.28;;;14.50;36.73
12868;BME280;33517;49.866;8.320;2023-02-26T12:35:29;100846.53;;;16.72;34.04
12868;BME280;33517;49.866;8.320;2023-02-26T12:38:29;100847.72;;;17.98;32.15
12868;BME280;33517;49.866;8.320;2023-02-26T12:41:50;100850.47;;;18.44;30.32
12868;BME280;33517;49.866;8.320;2023-02-26T12:44:59;100852.78;;;17.73;30.81
12868;BME280;33517;49.866;8.320;2023-02-26T12:48:09;100851.84;;;16.02;31.90
12868;BME280;33517;49.866;8.320;2023-02-26T12:51:17;100860.41;;;13.61;32.69
12868;BME280;33517;49.866;8.320;2023-02-26T12:54:38;100876.78;;;11.31;34.68
12868;BME280;33517;49.866;8.320;2023-02-26T12:57:50;100873.03;;;9.51;35.94
12868;BME280;33517;49.866;8.320;2023-02-26T13:00:57;100877.41;;;8.41;37.65
12868;BME280;33517;49.866;8.320;2023-02-26T13:04:19;100884.72;;;8.37;38.05
12868;BME280;33517;49.866;8.320;2023-02-26T13:07:35;100879.63;;;8.35;39.20
12868;BME280;33517;49.866;8.320;2023-02-26T13:10:43;100878.50;;;7.90;40.57
12868;BME280;33517;49.866;8.320;2023-02-26T13:13:50;100884.97;;;7.77;39.50
12868;BME280;33517;49.866;8.320;2023-02-26T13:16:50;100876.44;;;7.94;39.81
12868;BME280;33517;49.866;8.320;2023-02-26T13:19:46;100884.28;;;7.94;40.15
12868;BME280;33517;49.866;8.320;2023-02-26T13:22:43;100892.69;;;7.78;40.96
12868;BME280;33517;49.866;8.320;2023-02-26T13:25:40;100894.28;;;7.60;41.93
12868;BME280;33517;49.866;8.320;2023-02-26T13:28:41;100885.19;;;7.55;41.27
12868;BME280;33517;49.866;8.320;2023-02-26T13:31:39;100891.84;;;7.28;40.83
12868;BME280;33517;49.866;8.320;2023-02-26T13:34:38;100892.44;;;7.02;41.40
12868;BME280;33517;49.866;8.320;2023-02-26T13:37:34;100904.56;;;6.82;41.65
12868;BME280;33517;49.866;8.320;2023-02-26T13:40:40;100898.88;;;6.98;42.17
12868;BME280;33517;49.866;8.320;2023-02-26T13:43:44;100892.31;;;7.03;41.95
12868;BME280;33517;49.866;8.320;2023-02-26T13:46:49;100888.94;;;7.22;41.63
12868;BME280;33517;49.866;8.320;2023-02-26T13:49:52;100885.81;;;7.37;41.35
12868;BME280;33517;49.866;8.320;2023-02-26T13:52:51;100891.41;;;7.23;42.54
12868;BME280;33517;49.866;8.320;2023-02-26T13:55:46;100887.94;;;7.13;41.72
12868;BME280;33517;49.866;8.320;2023-02-26T13:58:40;100887.41;;;6.89;42.99
12868;BME280;33517;49.866;8.320;2023-02-26T14:01:33;100884.88;;;6.58;42.78
12868;BME280;33517;49.866;8.320;2023-02-26T14:04:28;100891.69;;;6.28;43.37
12868;BME280;33517;49.866;8.320;2023-02-26T14:07:45;100899.44;;;6.19;43.82
12868;BME280;33517;49.866;8.320;2023-02-26T14:10:46;100902.94;;;6.08;44.63
12868;BME280;33517;49.866;8.320;2023-02-26T14:14:05;100903.56;;;6.01;44.72
12868;BME280;33517;49.866;8.320;2023-02-26T14:17:18;100908.09;;;5.99;45.56
12868;BME280;33517;49.866;8.320;2023-02-26T14:20:17;100904.41;;;5.90;44.92
12868;BME280;33517;49.866;8.320;2023-02-26T14:23:34;100912.84;;;5.83;44.88
12868;BME280;33517;49.866;8.320;2023-02-26T14:26:32;100916.19;;;5.74;45.32
12868;BME280;33517;49.866;8.320;2023-02-26T14:29:37;100917.50;;;5.68;45.31
12868;BME280;33517;49.866;8.320;2023-02-26T14:32:31;100918.47;;;5.56;45.77
12868;BME280;33517;49.866;8.320;2023-02-26T14:35:26;100921.66;;;5.59;45.35
12868;BME280;33517;49.866;8.320;2023-02-26T14:38:22;100912.78;;;5.51;45.61
12868;BME280;33517;49.866;8.320;2023-02-26T14:41:24;100915.03;;;5.55;45.59
12868;BME280;33517;49.866;8.320;2023-02-26T14:44:23;100919.88;;;5.71;45.63
12868;BME280;33517;49.866;8.320;2023-02-26T14:47:16;100921.72;;;5.80;45.79
12868;BME280;33517;49.866;8.320;2023-02-26T14:50:11;100917.16;;;5.61;45.17
12868;BME280;33517;49.866;8.320;2023-02-26T14:53:35;100918.63;;;5.43;45.65
12868;BME280;33517;49.866;8.320;2023-02-26T14:56:38;100928.44;;;5.29;45.72
12868;BME280;33517;49.866;8.320;2023-02-26T14:59:47;100917.88;;;5.30;45.81
12868;BME280;33517;49.866;8.320;2023-02-26T15:02:54;100918.72;;;5.31;45.73
12868;BME280;33517;49.866;8.320;2023-02-26T15:05:59;100933.06;;;5.14;44.92
12868;BME280;33517;49.866;8.320;2023-02-26T15:09:04;100933.78;;;5.38;45.45
12868;BME280;33517;49.866;8.320;2023-02-26T15:12:13;100937.31;;;5.59;46.55
12868;BME280;33517;49.866;8.320;2023-02-26T15:15:21;100931.16;;;5.60;46.90
12868;BME280;33517;49.866;8.320;2023-02-26T15:18:36;100940.28;;;5.55;47.07
12868;BME280;33517;49.866;8.320;2023-02-26T15:21:41;100950.13;;;5.51;48.08
12868;BME280;33517;49.866;8.320;2023-02-26T15:24:35;100946.00;;;5.49;48.09
12868;BME280;33517;49.866;8.320;2023-02-26T15:27:29;100946.94;;;5.48;48.38
12868;BME280;33517;49.866;8.320;2023-02-26T15:30:23;100956.44;;;5.49;48.24
12868;BME280;33517;49.866;8.320;2023-02-26T15:33:19;100953.47;;;5.42;48.80
12868;BME280;33517;49.866;8.320;2023-02-26T15:36:13;100951.09;;;5.28;48.16